メインページ
METAR-TAF:

METAR-TAF

空港 :

ナタール, リオグランデ・ド・ノルテ州, ブラジル

緯度: 05-46-05S, 経度: 035-22-34W, 海抜: 88m

現時点の気象観測

当レポートは28分前の04:00(UTC)に作成
南西の風 4kt
気温 23°C
湿度 94%
気圧 1013 hPa
視程10km以上
高度2100ftの雲はほとんどない
高度10000ftの雲は散在している

METAR: SBSG 220400Z 22004KT 9999 FEW021 SCT100 23/22 Q1013

時間: 01:28 (04:28 UTC)

予報

当レポートは6時間28分前の22:00(UTC)に作成
予報は22日の 00時(UTC)から 22日の 24時(UTC)まで有効
南/南西の風 4kt
視程: 9000m
高度1600ftの雲は散在している
確率 30% :
22日の 08時(UTC)から 22日の 10時(UTC)まで一時的に
視程: 7000m
高度1000ftの雲はほとんどない
高度2000ftの雲は散在している
にわか雨
22日の 11時(UTC)から 22日の 12時(UTC)まで徐々に
南/南東の風 10kt

TAF: SBSG 212200Z 2200/2224 21004KT 9000 SCT016 TN23/2206Z TX30/2215Z PROB30 TEMPO 2208/2210 7000 SHRA FEW010 SCT020 BECMG 2211/2212 16010KT RMK PCN

4,000以上の空港の気象観測と天気予報(METAR報とTAF報)

利用可能な観測所は地図上に黄色い丸と赤い丸で示す。

丸の上にカーソルを重ねると観測所名を参照できる。

次にクリックすると気象観測と天気予報を参照できる。

マップの切り替え:黒色「×」印の緑ボタンをクリックして拡大、「-」印の緑ボタンをクリックして縮小、緑色の三角印をクリックして隣りの地図に切り替え


METAR-TAF: